Time;durP1;ratioP1;P1;durP2;ratioP2;P2;SDS_P1;SDS_P2;PMS_P1;PMS_P2;Temp;Humidity;BMP_temperature;BMP_pressure;BME280_temperature;BME280_humidity;BME280_pressure;Samples;Min_cycle;Max_cycle;Signal;HPM_P1;HPM_P2
2022/09/25 00:01:38;;;;;;;10.60;5.18;;;13.40;99.90;;;;;;4954438;29;20042;-68
2022/09/25 00:04:04;;;;;;;12.45;6.53;;;13.40;99.90;;;;;;4955333;28;20023;-69
2022/09/25 00:06:32;;;;;;;13.40;5.03;;;13.40;99.90;;;;;;4955664;28;20035;-68
2022/09/25 00:09:00;;;;;;;10.95;5.95;;;13.40;99.90;;;;;;4954211;29;20502;-68
2022/09/25 00:11:31;;;;;;;8.55;5.65;;;13.40;99.90;;;;;;4969550;28;20035;-68
2022/09/25 00:14:00;;;;;;;10.13;4.90;;;13.40;99.90;;;;;;4954123;29;20110;-68
2022/09/25 00:16:29;;;;;;;7.72;4.60;;;13.50;99.90;;;;;;4955392;28;20042;-68
2022/09/25 00:21:44;;;;;;;13.27;5.50;;;13.40;99.90;;;;;;4955169;29;20047;-68
2022/09/25 00:24:12;;;;;;;10.95;5.82;;;13.40;99.90;;;;;;4953830;28;20035;-69
2022/09/25 00:26:41;;;;;;;10.18;5.50;;;13.40;99.90;;;;;;4953744;28;20126;-69
2022/09/25 00:29:11;;;;;;;11.55;6.35;;;13.40;99.90;;;;;;4954923;28;20159;-68
2022/09/25 00:31:36;;;;;;;9.63;5.32;;;13.40;99.90;;;;;;4955341;28;20027;-69
2022/09/25 00:34:04;;;;;;;8.85;5.28;;;13.40;99.90;;;;;;4955027;28;20491;-69
2022/09/25 00:36:30;;;;;;;9.90;4.97;;;13.40;99.90;;;;;;4954017;28;20035;-68
2022/09/25 00:38:57;;;;;;;10.50;6.03;;;13.40;99.90;;;;;;4953606;29;20039;-68
2022/09/25 00:41:26;;;;;;;9.82;5.13;;;13.30;99.90;;;;;;4955050;28;20033;-69
2022/09/25 00:43:55;;;;;;;9.25;5.97;;;13.30;99.90;;;;;;4954636;28;20464;-68
2022/09/25 00:46:39;;;;;;;12.32;5.45;;;13.30;99.90;;;;;;4953729;28;20098;-69
2022/09/25 00:49:19;;;;;;;12.15;6.22;;;13.30;99.90;;;;;;4954546;28;20044;-68
2022/09/25 00:51:49;;;;;;;10.25;4.22;;;13.30;99.90;;;;;;4953772;29;20055;-68
2022/09/25 00:54:33;;;;;;;8.13;5.53;;;13.30;99.90;;;;;;4954309;28;20027;-68
2022/09/25 00:57:05;;;;;;;10.77;5.60;;;13.30;99.90;;;;;;4938044;29;20039;-68
2022/09/25 00:59:37;;;;;;;11.05;5.00;;;13.30;99.90;;;;;;4953216;29;20110;-68
2022/09/25 01:02:03;;;;;;;10.93;4.45;;;13.30;99.90;;;;;;4952904;28;20118;-69
2022/09/25 01:04:33;;;;;;;19.48;4.85;;;13.30;99.90;;;;;;4949841;29;20106;-68
2022/09/25 01:06:59;;;;;;;10.77;5.35;;;13.20;99.90;;;;;;4962831;28;20513;-68
2022/09/25 01:09:26;;;;;;;9.13;4.57;;;13.10;99.90;;;;;;4953867;28;20126;-68
2022/09/25 01:11:53;;;;;;;10.95;5.00;;;13.20;99.90;;;;;;4952993;28;20035;-68
2022/09/25 01:14:19;;;;;;;9.32;4.88;;;13.20;99.90;;;;;;4954153;28;20623;-68
2022/09/25 01:17:01;;;;;;;9.13;4.80;;;13.20;99.90;;;;;;4936266;28;20114;-68
2022/09/25 01:20:14;;;;;;;11.35;5.43;;;13.20;99.90;;;;;;4935022;29;20087;-68
2022/09/25 01:23:26;;;;;;;8.60;4.55;;;13.30;99.90;;;;;;4951209;28;20043;-68
2022/09/25 01:26:32;;;;;;;9.32;4.60;;;13.20;99.90;;;;;;4934863;29;20039;-69
2022/09/25 01:29:24;;;;;;;11.20;5.60;;;13.20;99.90;;;;;;4934725;29;20100;-68
2022/09/25 01:32:04;;;;;;;11.90;5.13;;;13.20;99.90;;;;;;4948779;29;20515;-69
2022/09/25 01:34:40;;;;;;;11.80;4.63;;;13.20;99.90;;;;;;4933538;29;20118;-68
2022/09/25 01:37:26;;;;;;;8.38;4.38;;;13.10;99.90;;;;;;4948935;28;20082;-68
2022/09/25 01:40:35;;;;;;;7.03;4.13;;;13.10;99.90;;;;;;4949050;29;20416;-69
2022/09/25 01:43:22;;;;;;;11.63;6.20;;;13.20;99.90;;;;;;4952667;28;20126;-68
2022/09/25 01:45:58;;;;;;;6.85;4.32;;;13.10;99.90;;;;;;4934347;29;20508;-68
2022/09/25 01:48:29;;;;;;;13.98;6.43;;;13.20;99.90;;;;;;4948685;28;20054;-68
2022/09/25 01:51:15;;;;;;;11.43;6.03;;;13.20;99.90;;;;;;4948693;29;20064;-68
2022/09/25 01:53:52;;;;;;;9.23;5.50;;;13.20;99.90;;;;;;4947764;29;20039;-68
2022/09/25 01:56:31;;;;;;;12.45;6.28;;;13.00;99.90;;;;;;4948934;28;20032;-68
2022/09/25 01:59:12;;;;;;;11.25;5.05;;;13.10;99.90;;;;;;4948013;28;20050;-68
2022/09/25 02:01:43;;;;;;;9.35;5.82;;;13.10;99.90;;;;;;4948462;29;20058;-68
2022/09/25 02:04:21;;;;;;;;;;;13.20;99.90;;;;;;4934504;29;20110;-68
2022/09/25 02:06:49;;;;;;;9.70;4.85;;;13.20;99.90;;;;;;4948273;28;19922;-68
2022/09/25 02:09:44;;;;;;;8.98;5.28;;;13.20;99.90;;;;;;4933717;29;20039;-68
2022/09/25 02:12:19;;;;;;;9.27;5.55;;;13.20;99.90;;;;;;4933358;28;20032;-68
2022/09/25 02:14:55;;;;;;;9.93;5.25;;;13.20;99.90;;;;;;4948304;28;20493;-68
2022/09/25 02:20:30;;;;;;;12.25;5.28;;;13.20;99.90;;;;;;4932846;29;20040;-68
2022/09/25 02:23:07;;;;;;;16.92;5.82;;;13.20;99.90;;;;;;4933547;29;20094;-68
2022/09/25 02:25:52;;;;;;;9.52;4.35;;;13.20;99.90;;;;;;4932183;29;20032;-68
2022/09/25 02:28:18;;;;;;;11.35;6.20;;;13.20;99.90;;;;;;4932836;29;20563;-68
2022/09/25 02:30:46;;;;;;;10.77;5.45;;;13.20;99.90;;;;;;4932487;29;20118;-69
2022/09/25 02:33:11;;;;;;;12.40;6.18;;;13.20;99.90;;;;;;4932185;29;20059;-68
2022/09/25 02:35:38;;;;;;;14.27;6.60;;;13.20;99.90;;;;;;4933749;29;20031;-68
2022/09/25 02:38:04;;;;;;;12.40;6.35;;;13.20;99.90;;;;;;4933690;29;20467;-69
2022/09/25 02:40:45;;;;;;;12.25;6.88;;;13.20;99.90;;;;;;4932152;29;20034;-68
2022/09/25 02:43:44;;;;;;;11.10;4.97;;;13.20;99.90;;;;;;4932235;29;20089;-68
2022/09/25 02:46:28;;;;;;;11.07;5.18;;;13.30;99.90;;;;;;4933764;29;20048;-69
2022/09/25 02:49:12;;;;;;;12.57;6.28;;;13.20;99.90;;;;;;4931987;29;20039;-69
2022/09/25 02:51:56;;;;;;;11.45;5.90;;;13.20;99.90;;;;;;4918898;29;20370;-68
2022/09/25 02:54:37;;;;;;;12.20;6.00;;;13.20;99.90;;;;;;4932132;29;20169;-68
2022/09/25 02:57:38;;;;;;;11.60;5.20;;;13.20;99.90;;;;;;4932205;29;20136;-68
2022/09/25 03:00:06;;;;;;;;;;;13.20;99.90;;;;;;4932289;29;20040;-68
2022/09/25 03:02:34;;;;;;;9.82;5.40;;;13.20;99.90;;;;;;4931838;29;19918;-68
2022/09/25 03:05:03;;;;;;;13.93;5.57;;;13.20;99.90;;;;;;4932293;29;20046;-68
2022/09/25 03:08:36;;;;;;;10.60;5.70;;;13.20;99.90;;;;;;4932325;29;20028;-68
2022/09/25 03:10:17;;;;;;;10.60;4.75;;;13.20;99.90;;;;;;4932047;29;20028;-69
2022/09/25 03:12:42;;;;;;;13.80;6.18;;;13.20;99.90;;;;;;4932995;29;20040;-68
2022/09/25 03:15:11;;;;;;;10.30;5.85;;;13.20;99.90;;;;;;4940837;29;20430;-68
2022/09/25 03:17:38;;;;;;;9.57;6.20;;;13.20;99.90;;;;;;4951259;28;20082;-68
2022/09/25 03:20:09;;;;;;;15.75;5.90;;;13.20;99.90;;;;;;4950783;28;20043;-68
2022/09/25 03:22:36;;;;;;;12.65;5.15;;;13.20;99.90;;;;;;4935511;29;20039;-69
2022/09/25 03:25:04;;;;;;;11.65;6.13;;;13.20;99.90;;;;;;4952325;28;20039;-69
2022/09/25 03:27:30;;;;;;;14.73;6.18;;;13.20;99.90;;;;;;4952321;28;20035;-69
2022/09/25 03:29:55;;;;;;;10.27;6.10;;;13.20;99.90;;;;;;4952109;28;20034;-69
2022/09/25 03:32:22;;;;;;;8.35;4.88;;;13.20;99.90;;;;;;4951936;28;20061;-69
2022/09/25 03:34:48;;;;;;;10.77;5.03;;;13.30;99.90;;;;;;4951202;28;20110;-69
2022/09/25 03:37:14;;;;;;;8.35;4.75;;;13.30;99.90;;;;;;4952476;28;20094;-69
2022/09/25 03:39:39;;;;;;;10.20;4.47;;;13.20;99.90;;;;;;4951871;28;20087;-69
2022/09/25 03:42:05;;;;;;;10.00;4.22;;;13.20;99.90;;;;;;4951937;28;20078;-69
2022/09/25 03:44:31;;;;;;;10.35;5.47;;;13.20;99.90;;;;;;4952230;28;20031;-70
2022/09/25 03:46:56;;;;;;;7.07;4.05;;;13.20;99.90;;;;;;4953681;28;20085;-70
2022/09/25 03:49:22;;;;;;;7.63;4.15;;;13.20;99.90;;;;;;4955441;28;20034;-69
2022/09/25 03:51:48;;;;;;;6.57;3.53;;;13.10;99.90;;;;;;4955783;28;20024;-69
2022/09/25 03:54:14;;;;;;;8.95;3.85;;;13.10;99.90;;;;;;4954299;29;20074;-69
2022/09/25 03:56:40;;;;;;;7.68;3.47;;;13.10;99.90;;;;;;4955586;28;20126;-69
2022/09/25 03:59:06;;;;;;;9.63;4.15;;;13.10;99.90;;;;;;4955301;28;20027;-70
2022/09/25 04:01:32;;;;;;;6.57;3.75;;;13.10;99.90;;;;;;4955415;28;20035;-69
2022/09/25 04:03:59;;;;;;;7.65;4.07;;;13.10;99.90;;;;;;4955066;28;20031;-69
2022/09/25 04:06:25;;;;;;;7.03;3.25;;;13.10;99.90;;;;;;4955237;28;20054;-70
2022/09/25 04:08:52;;;;;;;8.98;4.95;;;13.10;99.90;;;;;;4955381;28;20118;-69
2022/09/25 04:11:21;;;;;;;5.78;3.53;;;13.10;99.90;;;;;;4953950;28;20038;-70
2022/09/25 04:13:47;;;;;;;6.47;4.18;;;13.00;99.90;;;;;;4953910;28;20475;-69
2022/09/25 04:16:15;;;;;;;5.68;3.38;;;13.10;99.90;;;;;;4967024;28;20043;-70
2022/09/25 04:18:41;;;;;;;7.05;3.10;;;13.10;99.90;;;;;;4934902;29;20043;-69
2022/09/25 04:21:11;;;;;;;6.95;3.67;;;13.00;99.90;;;;;;4934955;29;20035;-70
2022/09/25 04:23:37;;;;;;;7.75;4.25;;;13.10;99.90;;;;;;4935664;28;20032;-69
2022/09/25 04:26:04;;;;;;;7.60;4.15;;;13.10;99.90;;;;;;4934548;29;20098;-70
2022/09/25 04:28:31;;;;;;;5.13;3.00;;;13.10;99.90;;;;;;4919197;29;20023;-69
2022/09/25 04:30:57;;;;;;;5.10;3.08;;;13.10;99.90;;;;;;4935703;29;20044;-69
2022/09/25 04:36:08;;;;;;;7.20;3.80;;;13.00;99.90;;;;;;4935784;29;20074;-69
2022/09/25 04:38:34;;;;;;;5.57;3.35;;;13.00;99.90;;;;;;4935881;29;20095;-70
2022/09/25 04:41:01;;;;;;;6.40;3.67;;;13.00;99.90;;;;;;4934982;29;20448;-69
2022/09/25 04:43:28;;;;;;;6.03;3.67;;;13.00;99.90;;;;;;4934160;29;20033;-70
2022/09/25 04:45:54;;;;;;;8.80;4.57;;;13.00;99.90;;;;;;4935611;29;20040;-69
2022/09/25 04:48:20;;;;;;;6.78;3.92;;;13.00;99.90;;;;;;4934588;29;20392;-69
2022/09/25 04:50:50;;;;;;;8.93;4.30;;;13.00;99.90;;;;;;4935357;29;20063;-69
2022/09/25 04:53:17;;;;;;;7.30;3.95;;;13.00;99.90;;;;;;4935423;29;20031;-69
2022/09/25 04:55:44;;;;;;;6.03;4.03;;;13.00;99.90;;;;;;4934275;29;20036;-69
2022/09/25 04:58:10;;;;;;;5.85;3.38;;;13.00;99.90;;;;;;4933799;29;20101;-70
2022/09/25 05:00:37;;;;;;;7.25;4.00;;;13.00;99.90;;;;;;4935067;29;20655;-69
2022/09/25 05:03:03;;;;;;;12.05;3.92;;;13.00;99.90;;;;;;4918170;29;20039;-70
2022/09/25 05:05:30;;;;;;;5.20;3.63;;;13.00;99.90;;;;;;4935291;29;20067;-69
2022/09/25 05:07:59;;;;;;;6.63;3.30;;;13.00;99.90;;;;;;4935470;29;20023;-70
2022/09/25 05:10:29;;;;;;;6.95;3.78;;;13.00;99.90;;;;;;4918202;29;20032;-69
2022/09/25 05:13:03;;;;;;;5.07;3.50;;;13.00;99.90;;;;;;4933505;29;20114;-69
2022/09/25 05:15:32;;;;;;;5.85;3.25;;;13.00;99.90;;;;;;4945013;28;20035;-70
2022/09/25 05:18:04;;;;;;;10.48;4.28;;;13.00;99.90;;;;;;4953235;29;20379;-70
2022/09/25 05:20:30;;;;;;;4.97;3.10;;;13.00;99.90;;;;;;4953681;28;20031;-69
2022/09/25 05:22:57;;;;;;;5.93;3.15;;;13.00;99.90;;;;;;4952564;29;20035;-70
2022/09/25 05:25:25;;;;;;;4.80;2.80;;;13.00;99.90;;;;;;4953900;28;20047;-70
2022/09/25 05:27:57;;;;;;;5.88;3.00;;;13.00;99.90;;;;;;4952516;28;20115;-70
2022/09/25 05:30:24;;;;;;;4.72;2.92;;;13.00;99.90;;;;;;4952378;29;20032;-70
2022/09/25 05:32:51;;;;;;;5.32;3.05;;;12.90;99.90;;;;;;4952289;28;20110;-69
2022/09/25 05:35:22;;;;;;;6.65;3.28;;;13.00;99.90;;;;;;4953902;28;20101;-69
2022/09/25 05:37:49;;;;;;;6.78;3.05;;;12.90;99.90;;;;;;4953996;29;20058;-69
2022/09/25 05:40:17;;;;;;;6.35;3.20;;;12.90;99.90;;;;;;4950127;29;20028;-70
2022/09/25 05:42:43;;;;;;;9.57;4.82;;;13.00;99.90;;;;;;4940972;28;20027;-69
2022/09/25 05:45:17;;;;;;;5.10;3.20;;;13.00;99.90;;;;;;4927196;29;20028;-69
2022/09/25 05:47:43;;;;;;;6.13;3.58;;;13.00;99.90;;;;;;4943534;28;20038;-69
2022/09/25 05:50:13;;;;;;;5.88;2.85;;;13.00;99.90;;;;;;4948713;28;20388;-68
2022/09/25 05:52:39;;;;;;;7.03;3.85;;;13.00;99.90;;;;;;4942303;28;20031;-68
2022/09/25 05:55:06;;;;;;;7.47;4.13;;;13.00;99.90;;;;;;4944214;28;20739;-68
2022/09/25 05:57:34;;;;;;;7.82;3.05;;;13.10;99.90;;;;;;4943135;29;20024;-68
2022/09/25 06:00:00;;;;;;;10.15;5.15;;;13.10;99.90;;;;;;4946969;29;20053;-68
2022/09/25 06:02:26;;;;;;;5.88;3.08;;;13.00;99.90;;;;;;4946101;28;20504;-68
2022/09/25 06:04:52;;;;;;;6.47;2.78;;;13.00;99.90;;;;;;4945542;28;20113;-68
2022/09/25 06:07:18;;;;;;;3.97;2.42;;;13.00;99.90;;;;;;4945302;28;20071;-68
2022/09/25 06:09:44;;;;;;;6.82;3.05;;;13.10;99.90;;;;;;4945818;28;20027;-68
2022/09/25 06:12:10;;;;;;;4.38;2.72;;;13.00;99.90;;;;;;4950651;28;20039;-66
2022/09/25 06:14:36;;;;;;;4.82;2.95;;;13.10;99.90;;;;;;4950697;28;20523;-67
2022/09/25 06:17:03;;;;;;;5.38;3.22;;;13.00;99.90;;;;;;4967493;28;20393;-68
2022/09/25 06:19:29;;;;;;;6.25;3.38;;;13.00;99.90;;;;;;4951214;28;20114;-68
2022/09/25 06:21:58;;;;;;;5.47;3.13;;;13.00;99.90;;;;;;4968052;28;20046;-73
2022/09/25 06:24:24;;;;;;;5.07;3.42;;;13.10;99.90;;;;;;4953283;28;20098;-67
2022/09/25 06:26:50;;;;;;;6.80;3.13;;;13.10;99.90;;;;;;4945516;28;20515;-67
2022/09/25 06:29:15;;;;;;;5.30;2.72;;;13.10;99.90;;;;;;4942834;28;20038;-67
2022/09/25 06:31:41;;;;;;;4.15;2.85;;;13.10;99.90;;;;;;4943266;29;20023;-66
2022/09/25 06:34:11;;;;;;;4.45;2.63;;;13.10;99.90;;;;;;4933472;28;20035;-67
2022/09/25 06:36:37;;;;;;;6.75;3.30;;;13.10;99.90;;;;;;4933569;29;20514;-67
2022/09/25 06:39:03;;;;;;;5.45;2.67;;;13.10;99.90;;;;;;4943833;29;20587;-66
2022/09/25 06:41:29;;;;;;;5.53;3.47;;;13.10;99.90;;;;;;4964814;28;20040;-66
2022/09/25 06:43:55;;;;;;;4.85;2.53;;;13.10;99.90;;;;;;4952020;28;20020;-66
2022/09/25 06:46:21;;;;;;;5.03;3.00;;;13.20;99.90;;;;;;4952601;28;20082;-66
2022/09/25 06:48:56;;;;;;;4.45;2.92;;;13.20;99.90;;;;;;4961404;28;20035;-67
2022/09/25 06:51:23;;;;;;;5.28;2.70;;;13.20;99.90;;;;;;4972126;28;20026;-66
2022/09/25 06:53:52;;;;;;;5.18;3.28;;;13.20;99.90;;;;;;4949826;28;20114;-68
2022/09/25 06:56:19;;;;;;;5.43;2.88;;;13.20;99.90;;;;;;4949346;28;20062;-82
2022/09/25 06:58:45;;;;;;;6.00;2.70;;;13.20;99.90;;;;;;4966558;28;20105;-71
2022/09/25 07:01:12;;;;;;;6.28;2.55;;;13.20;99.90;;;;;;4947035;28;20477;-67
2022/09/25 07:03:44;;;;;;;7.50;3.63;;;13.20;99.90;;;;;;4939753;29;20109;-68
2022/09/25 07:06:11;;;;;;;4.05;2.53;;;13.20;99.90;;;;;;4951049;29;20031;-68
2022/09/25 07:08:37;;;;;;;3.95;2.60;;;13.30;99.90;;;;;;4945791;29;20050;-68
2022/09/25 07:11:04;;;;;;;7.50;3.03;;;13.30;99.90;;;;;;4939734;28;20040;-67
2022/09/25 07:13:34;;;;;;;7.40;3.55;;;13.30;99.90;;;;;;4944911;28;20336;-68
2022/09/25 07:16:06;;;;;;;8.90;5.63;;;13.30;99.90;;;;;;4966739;28;20047;-68
2022/09/25 07:18:33;;;;;;;8.45;3.95;;;13.30;99.90;;;;;;4948050;28;20042;-67
2022/09/25 07:21:18;;;;;;;8.88;4.28;;;13.40;99.90;;;;;;4947937;28;20035;-67
2022/09/25 07:23:47;;;;;;;7.40;4.15;;;13.30;99.90;;;;;;4950475;29;20523;-69
2022/09/25 07:26:22;;;;;;;7.50;4.50;;;13.30;99.90;;;;;;4953686;28;20035;-69
2022/09/25 07:28:58;;;;;;;6.32;4.32;;;13.30;99.90;;;;;;4940373;28;20028;-69
2022/09/25 07:31:26;;;;;;;7.93;4.28;;;13.30;99.90;;;;;;4949519;29;20544;-69
2022/09/25 07:33:52;;;;;;;6.10;3.65;;;13.30;99.90;;;;;;4959444;28;20046;-68
2022/09/25 07:36:19;;;;;;;7.25;4.22;;;13.30;99.90;;;;;;4954404;28;20500;-68
2022/09/25 07:38:52;;;;;;;10.88;5.32;;;13.30;99.90;;;;;;4952971;29;20042;-68
2022/09/25 07:41:21;;;;;;;8.07;3.92;;;13.40;99.90;;;;;;4935605;28;20027;-68
2022/09/25 07:43:51;;;;;;;8.75;4.53;;;13.40;99.90;;;;;;4949279;29;20040;-68
2022/09/25 07:46:17;;;;;;;10.13;3.92;;;13.50;99.90;;;;;;4958684;28;20042;-67
2022/09/25 07:48:43;;;;;;;8.55;4.68;;;13.60;99.90;;;;;;4951857;28;20490;-67
2022/09/25 07:51:11;;;;;;;9.18;4.45;;;13.60;99.90;;;;;;4954226;28;20027;-68
2022/09/25 07:53:38;;;;;;;10.32;5.22;;;13.60;99.90;;;;;;4968684;28;20550;-68
2022/09/25 07:56:04;;;;;;;8.48;4.70;;;13.70;99.90;;;;;;4933313;29;20074;-68
2022/09/25 07:58:30;;;;;;;8.07;3.55;;;13.70;99.90;;;;;;4935413;29;20040;-67
2022/09/25 08:01:00;;;;;;;9.48;4.90;;;13.70;99.90;;;;;;4933128;29;20036;-67
2022/09/25 08:03:27;;;;;;;6.50;4.18;;;13.80;99.90;;;;;;4941296;29;20038;-68
2022/09/25 08:06:12;;;;;;;8.48;4.82;;;13.90;99.90;;;;;;4951847;28;20518;-68
2022/09/25 08:08:40;;;;;;;9.05;3.83;;;13.90;99.90;;;;;;4951945;28;20031;-68
2022/09/25 08:11:12;;;;;;;9.73;4.47;;;14.00;99.90;;;;;;4944866;28;20046;-68
2022/09/25 08:13:40;;;;;;;6.45;3.78;;;14.10;99.90;;;;;;4953069;28;20023;-68
2022/09/25 08:16:12;;;;;;;7.78;5.05;;;14.20;99.90;;;;;;4952030;28;20038;-68
2022/09/25 08:18:48;;;;;;;7.72;4.32;;;14.20;99.90;;;;;;4954209;28;20623;-67
2022/09/25 08:21:17;;;;;;;7.22;3.95;;;14.30;99.90;;;;;;4969368;28;20043;-68
2022/09/25 08:23:49;;;;;;;9.25;5.28;;;14.50;99.90;;;;;;4953203;29;20031;-68
2022/09/25 08:26:17;;;;;;;6.63;3.97;;;14.50;99.90;;;;;;4953147;28;20606;-68
2022/09/25 08:28:43;;;;;;;6.63;3.40;;;14.70;99.90;;;;;;4968652;28;20736;-68
2022/09/25 08:31:09;;;;;;;6.65;3.42;;;14.80;99.90;;;;;;4953533;29;20038;-67
2022/09/25 08:33:36;;;;;;;8.73;4.07;;;14.90;99.90;;;;;;4952835;28;20035;-68
2022/09/25 08:36:04;;;;;;;6.78;4.05;;;14.90;99.90;;;;;;4953737;28;20028;-68
2022/09/25 08:38:33;;;;;;;6.70;3.83;;;15.00;99.90;;;;;;4953500;29;20059;-68
2022/09/25 08:41:16;;;;;;;9.60;4.90;;;15.10;99.90;;;;;;4953679;29;20037;-68
2022/09/25 08:44:05;;;;;;;8.25;3.95;;;15.10;99.90;;;;;;4968909;28;20053;-68
2022/09/25 08:49:36;;;;;;;4.78;3.03;;;15.00;99.90;;;;;;4980859;28;20034;-68
2022/09/25 08:52:07;;;;;;;7.03;3.65;;;15.00;99.90;;;;;;4972097;28;20431;-68
2022/09/25 08:54:34;;;;;;;12.48;4.15;;;15.00;99.90;;;;;;4971098;28;20050;-69
2022/09/25 08:57:30;;;;;;;4.22;2.67;;;14.90;99.90;;;;;;4966593;28;20495;-69
2022/09/25 09:00:03;;;;;;;5.28;2.78;;;14.90;99.90;;;;;;4967992;28;20119;-67
2022/09/25 09:02:55;;;;;;;5.57;3.30;;;15.00;99.90;;;;;;4947251;28;20114;-67
2022/09/25 09:05:28;;;;;;;5.70;2.58;;;15.20;99.90;;;;;;4948407;28;20070;-67
2022/09/25 09:08:06;;;;;;;5.75;2.88;;;15.30;99.90;;;;;;4950121;28;20043;-67
2022/09/25 09:10:53;;;;;;;5.43;3.08;;;15.30;99.90;;;;;;4947532;28;20031;-67
2022/09/25 09:13:43;;;;;;;5.72;3.47;;;15.30;99.90;;;;;;4951980;29;20031;-67
2022/09/25 09:16:35;;;;;;;6.45;2.80;;;15.30;99.90;;;;;;4951649;28;20487;-66
2022/09/25 09:19:04;;;;;;;5.70;2.80;;;15.30;99.90;;;;;;4951616;28;20383;-66
2022/09/25 09:21:59;;;;;;;5.65;2.50;;;15.30;99.90;;;;;;4950589;28;20036;-66
2022/09/25 09:24:53;;;;;;;5.20;3.03;;;15.40;99.90;;;;;;4959196;28;20075;-67
2022/09/25 09:27:36;;;;;;;4.88;2.40;;;15.30;99.90;;;;;;4948749;28;20090;-67
2022/09/25 09:30:17;;;;;;;5.25;2.47;;;15.40;99.90;;;;;;4951364;28;20035;-67
2022/09/25 09:33:22;;;;;;;5.70;2.50;;;15.50;99.90;;;;;;4951756;29;20046;-66
2022/09/25 09:36:17;;;;;;;3.17;2.05;;;15.60;99.90;;;;;;4951070;29;20066;-65
2022/09/25 09:39:01;;;;;;;4.65;2.63;;;15.80;99.90;;;;;;4950581;29;20031;-66
2022/09/25 09:41:53;;;;;;;4.22;1.63;;;15.80;99.90;;;;;;4952983;28;20534;-66
2022/09/25 09:44:59;;;;;;;4.25;1.92;;;16.00;99.90;;;;;;4951699;28;20038;-66
2022/09/25 09:48:01;;;;;;;3.80;1.60;;;16.10;99.90;;;;;;4952980;28;20046;-66
2022/09/25 09:50:48;;;;;;;3.75;2.20;;;15.90;99.90;;;;;;4951280;29;20028;-66
2022/09/25 09:53:24;;;;;;;8.90;2.97;;;16.20;99.90;;;;;;4951218;29;20695;-65
2022/09/25 09:55:55;;;;;;;5.30;2.05;;;16.10;99.90;;;;;;4951090;28;20035;-65
2022/09/25 09:58:49;;;;;;;;;;;16.10;99.90;;;;;;4951163;29;20042;-64
2022/09/25 10:01:20;;;;;;;5.00;2.65;;;16.10;99.90;;;;;;4950228;28;19922;-64
2022/09/25 10:03:53;;;;;;;5.03;2.42;;;15.90;99.90;;;;;;4951525;29;20038;-65
2022/09/25 10:06:21;;;;;;;5.80;2.80;;;15.90;99.90;;;;;;4951433;28;20031;-66
2022/09/25 10:08:47;;;;;;;3.15;2.05;;;15.80;99.90;;;;;;4950470;28;20385;-66
2022/09/25 10:11:16;;;;;;;4.68;3.08;;;15.70;99.90;;;;;;4952305;28;20062;-65
2022/09/25 10:13:44;;;;;;;4.80;2.88;;;15.70;99.90;;;;;;4951104;28;20491;-65
2022/09/25 10:16:22;;;;;;;5.88;2.92;;;15.70;99.90;;;;;;4950862;28;20043;-65
2022/09/25 10:19:03;;;;;;;6.65;2.95;;;15.60;99.90;;;;;;4950828;29;20046;-65
2022/09/25 10:21:37;;;;;;;7.28;3.55;;;15.60;99.90;;;;;;4967589;28;20126;-65
2022/09/25 10:24:03;;;;;;;6.35;3.60;;;15.60;99.90;;;;;;4966918;28;20691;-65
2022/09/25 10:26:37;;;;;;;6.22;3.10;;;15.60;99.90;;;;;;4966759;28;20559;-66
2022/09/25 10:29:09;;;;;;;7.00;2.85;;;15.70;99.90;;;;;;4966685;28;20042;-64
2022/09/25 10:31:39;;;;;;;5.82;3.05;;;15.70;99.90;;;;;;4952457;29;20133;-64
2022/09/25 10:34:16;;;;;;;5.85;2.72;;;15.80;99.90;;;;;;4966826;28;20082;-65
2022/09/25 10:36:50;;;;;;;3.92;2.28;;;15.90;99.90;;;;;;4952068;28;20042;-65
2022/09/25 10:39:34;;;;;;;5.38;2.70;;;16.10;99.90;;;;;;4966487;28;20027;-65
2022/09/25 10:42:07;;;;;;;4.68;2.30;;;16.30;99.90;;;;;;4977146;28;20039;-65
2022/09/25 10:44:37;;;;;;;6.38;2.10;;;16.60;99.90;;;;;;4951694;28;20035;-65
2022/09/25 10:50:19;;;;;;;5.97;2.00;;;16.90;99.90;;;;;;4950406;28;20047;-64
2022/09/25 10:52:51;;;;;;;4.13;2.15;;;17.00;99.90;;;;;;4966292;28;20035;-64
2022/09/25 10:55:29;;;;;;;3.67;1.55;;;17.00;99.90;;;;;;4951522;28;20460;-65
2022/09/25 10:58:09;;;;;;;2.95;1.50;;;17.30;99.90;;;;;;4951765;28;20036;-64
2022/09/25 11:00:50;;;;;;;2.58;1.35;;;17.60;99.90;;;;;;4951355;28;20035;-65
2022/09/25 11:03:31;;;;;;;2.35;1.33;;;17.70;99.90;;;;;;4951869;28;20474;-65
2022/09/25 11:06:24;;;;;;;4.00;1.97;;;17.70;99.90;;;;;;4950374;28;20027;-65
2022/09/25 11:09:31;;;;;;;4.00;1.95;;;17.70;99.90;;;;;;4966231;28;20028;-65
2022/09/25 11:12:25;;;;;;;5.57;2.15;;;17.70;99.90;;;;;;4949906;28;20039;-65
2022/09/25 11:15:04;;;;;;;3.05;1.67;;;17.60;99.90;;;;;;4946877;29;20073;-63
2022/09/25 11:17:41;;;;;;;6.63;2.38;;;17.70;99.90;;;;;;4965368;28;20067;-66
2022/09/25 11:20:16;;;;;;;3.83;2.03;;;17.70;99.90;;;;;;4961304;28;20086;-65
2022/09/25 11:23:07;;;;;;;3.75;2.10;;;17.80;99.90;;;;;;4950697;28;20082;-64
2022/09/25 11:25:56;;;;;;;4.75;1.92;;;18.10;99.90;;;;;;4950244;29;20102;-65
2022/09/25 11:28:56;;;;;;;3.78;1.70;;;18.20;99.90;;;;;;4950103;29;20043;-66
2022/09/25 11:32:03;;;;;;;2.63;1.50;;;18.70;99.90;;;;;;4935885;29;20140;-65
2022/09/25 11:34:55;;;;;;;2.58;1.35;;;18.80;99.90;;;;;;4949055;28;20042;-65
2022/09/25 11:37:38;;;;;;;2.28;1.30;;;18.60;99.90;;;;;;4951106;28;20086;-66
2022/09/25 11:43:42;;;;;;;6.50;1.67;;;18.60;99.90;;;;;;4949166;29;20031;-65
2022/09/25 11:46:41;;;;;;;3.15;1.88;;;18.90;99.90;;;;;;4964954;28;20039;-64
2022/09/25 11:49:36;;;;;;;2.33;1.13;;;18.80;99.90;;;;;;4946578;28;20792;-65
2022/09/25 11:52:38;;;;;;;2.17;1.13;;;19.00;99.90;;;;;;4930828;29;20460;-65
2022/09/25 11:55:45;;;;;;;3.50;1.60;;;19.10;99.90;;;;;;4932344;29;20036;-65
2022/09/25 11:58:44;;;;;;;1.88;1.20;;;19.00;99.90;;;;;;4946165;28;20042;-64
2022/09/25 12:01:33;;;;;;;2.63;1.30;;;18.70;99.90;;;;;;4957019;28;20119;-65
2022/09/25 12:04:34;;;;;;;2.88;1.13;;;18.90;99.90;;;;;;4958233;28;20035;-65
2022/09/25 12:07:39;;;;;;;2.50;1.23;;;18.90;99.90;;;;;;4963978;28;20399;-65
2022/09/25 12:10:28;;;;;;;1.88;1.30;;;18.90;99.90;;;;;;4953945;28;20070;-64
2022/09/25 12:13:05;;;;;;;2.75;1.25;;;18.50;99.90;;;;;;4952235;28;20042;-65
2022/09/25 12:15:52;;;;;;;2.47;1.48;;;18.60;99.90;;;;;;4953393;28;20071;-64
2022/09/25 12:18:39;;;;;;;2.10;0.90;;;18.40;99.90;;;;;;4954459;28;20118;-65
2022/09/25 12:21:19;;;;;;;2.10;1.25;;;18.20;99.90;;;;;;4952151;28;20044;-64
2022/09/25 12:23:59;;;;;;;2.25;1.20;;;18.10;99.90;;;;;;4953618;29;20462;-65
2022/09/25 12:26:55;;;;;;;2.10;1.20;;;17.90;99.90;;;;;;4950239;29;20027;-65
2022/09/25 12:29:39;;;;;;;5.80;1.60;;;17.90;99.90;;;;;;4951470;28;20039;-64
2022/09/25 12:32:37;;;;;;;3.75;1.55;;;17.70;99.90;;;;;;4954047;28;20038;-64
2022/09/25 12:35:38;;;;;;;2.95;1.80;;;17.60;99.90;;;;;;4953842;28;20485;-64
2022/09/25 12:38:58;;;;;;;3.28;1.88;;;17.70;99.90;;;;;;4954196;28;20126;-64
2022/09/25 12:42:16;;;;;;;4.20;2.05;;;17.70;99.90;;;;;;4945565;28;20050;-64
2022/09/25 12:44:59;;;;;;;8.23;2.55;;;17.60;99.90;;;;;;4953807;28;20070;-68
2022/09/25 12:47:36;;;;;;;3.58;2.00;;;17.60;99.90;;;;;;4967985;28;20035;-68
2022/09/25 12:50:08;;;;;;;3.78;1.73;;;17.40;99.90;;;;;;4948591;28;20035;-68
2022/09/25 12:52:58;;;;;;;2.97;1.75;;;17.40;99.90;;;;;;4950496;28;20042;-68
2022/09/25 12:55:52;;;;;;;4.40;2.87;;;17.30;99.90;;;;;;4946942;29;20027;-67
2022/09/25 12:58:41;;;;;;;5.15;2.33;;;17.10;99.90;;;;;;4947843;28;20315;-67
2022/09/25 13:01:59;;;;;;;3.85;1.98;;;17.00;99.90;;;;;;4932648;29;20032;-68
2022/09/25 13:04:55;;;;;;;5.20;2.60;;;16.70;99.90;;;;;;4933837;29;20068;-67
2022/09/25 13:07:27;;;;;;;6.57;3.20;;;16.50;99.90;;;;;;4947329;28;20035;-67
2022/09/25 13:09:53;;;;;;;7.10;4.10;;;16.40;99.90;;;;;;4934745;29;20066;-67
2022/09/25 13:12:36;;;;;;;10.35;4.32;;;16.20;99.90;;;;;;4933796;29;20500;-68
2022/09/25 13:15:18;;;;;;;5.68;3.35;;;16.00;99.90;;;;;;4950080;28;20038;-67
2022/09/25 13:17:44;;;;;;;7.65;3.50;;;15.90;99.90;;;;;;4950771;28;20122;-67
2022/09/25 13:20:35;;;;;;;10.82;4.30;;;15.90;99.90;;;;;;4968341;28;20527;-67
2022/09/25 13:23:09;;;;;;;8.20;3.90;;;15.80;99.90;;;;;;4953540;28;20108;-67
2022/09/25 13:25:58;;;;;;;11.18;4.35;;;15.70;99.90;;;;;;4968725;28;20031;-67
2022/09/25 13:28:35;;;;;;;11.88;4.88;;;15.70;99.90;;;;;;4954299;29;20031;-67
2022/09/25 13:31:11;;;;;;;6.50;3.65;;;15.70;99.90;;;;;;4968306;28;20061;-67
2022/09/25 13:34:12;;;;;;;10.13;4.30;;;15.80;99.90;;;;;;4967801;28;20065;-68
2022/09/25 13:36:55;;;;;;;;;;;15.80;99.90;;;;;;4949529;28;20066;-66
2022/09/25 13:42:38;;;;;;;10.98;3.78;;;15.80;99.90;;;;;;4952488;29;20087;-67
2022/09/25 13:45:33;;;;;;;8.70;3.75;;;15.70;99.90;;;;;;4952617;29;20627;-67
2022/09/25 13:48:11;;;;;;;8.82;3.60;;;15.70;99.90;;;;;;4955393;28;20089;-67
2022/09/25 13:50:45;;;;;;;12.07;3.85;;;15.70;99.90;;;;;;4972541;28;20555;-67